sensor_id;sensor_type;location;lat;lon;timestamp;P1;durP1;ratioP1;P2;durP2;ratioP2
62679;SDS011;68213;40.528;44.712;2023-09-08T00:00:57;13.00;;;7.00;;
62679;SDS011;68213;40.528;44.712;2023-09-08T00:01:58;13.98;;;6.60;;
62679;SDS011;68213;40.528;44.712;2023-09-08T00:02:59;9.18;;;6.47;;
62679;SDS011;68213;40.528;44.712;2023-09-08T00:03:59;11.25;;;6.30;;
62679;SDS011;68213;40.528;44.712;2023-09-08T00:05:00;9.38;;;6.28;;
62679;SDS011;68213;40.528;44.712;2023-09-08T00:06:00;9.90;;;6.72;;
62679;SDS011;68213;40.528;44.712;2023-09-08T00:07:01;13.10;;;6.75;;
62679;SDS011;68213;40.528;44.712;2023-09-08T00:08:02;10.02;;;6.40;;
62679;SDS011;68213;40.528;44.712;2023-09-08T00:09:03;11.57;;;7.22;;
62679;SDS011;68213;40.528;44.712;2023-09-08T00:10:06;8.77;;;6.47;;
62679;SDS011;68213;40.528;44.712;2023-09-08T00:11:07;11.65;;;7.07;;
62679;SDS011;68213;40.528;44.712;2023-09-08T00:12:08;10.02;;;6.70;;
62679;SDS011;68213;40.528;44.712;2023-09-08T00:13:08;9.93;;;6.55;;
62679;SDS011;68213;40.528;44.712;2023-09-08T00:14:09;11.07;;;6.40;;
62679;SDS011;68213;40.528;44.712;2023-09-08T00:15:11;11.20;;;7.03;;
62679;SDS011;68213;40.528;44.712;2023-09-08T00:16:11;8.70;;;6.80;;
62679;SDS011;68213;40.528;44.712;2023-09-08T00:17:12;11.20;;;6.68;;
62679;SDS011;68213;40.528;44.712;2023-09-08T00:18:13;12.10;;;6.90;;
62679;SDS011;68213;40.528;44.712;2023-09-08T00:19:13;10.57;;;6.50;;
62679;SDS011;68213;40.528;44.712;2023-09-08T00:20:14;11.43;;;6.75;;
62679;SDS011;68213;40.528;44.712;2023-09-08T00:21:15;9.43;;;6.70;;
62679;SDS011;68213;40.528;44.712;2023-09-08T00:22:17;16.20;;;7.15;;
62679;SDS011;68213;40.528;44.712;2023-09-08T00:23:52;10.90;;;6.60;;
62679;SDS011;68213;40.528;44.712;2023-09-08T00:24:53;12.35;;;6.82;;
62679;SDS011;68213;40.528;44.712;2023-09-08T00:25:55;9.50;;;5.75;;
62679;SDS011;68213;40.528;44.712;2023-09-08T00:26:58;11.50;;;6.65;;
62679;SDS011;68213;40.528;44.712;2023-09-08T00:27:59;9.38;;;6.07;;
62679;SDS011;68213;40.528;44.712;2023-09-08T00:29:00;9.57;;;6.50;;
62679;SDS011;68213;40.528;44.712;2023-09-08T00:30:01;7.53;;;6.00;;
62679;SDS011;68213;40.528;44.712;2023-09-08T00:31:04;11.48;;;6.55;;
62679;SDS011;68213;40.528;44.712;2023-09-08T00:32:05;10.68;;;6.60;;
62679;SDS011;68213;40.528;44.712;2023-09-08T00:33:06;9.10;;;6.50;;
62679;SDS011;68213;40.528;44.712;2023-09-08T00:34:11;8.30;;;6.78;;
62679;SDS011;68213;40.528;44.712;2023-09-08T00:35:11;11.98;;;6.57;;
62679;SDS011;68213;40.528;44.712;2023-09-08T00:36:13;10.93;;;6.78;;
62679;SDS011;68213;40.528;44.712;2023-09-08T00:37:15;10.60;;;6.80;;
62679;SDS011;68213;40.528;44.712;2023-09-08T00:38:15;12.15;;;6.55;;
62679;SDS011;68213;40.528;44.712;2023-09-08T00:39:16;11.95;;;6.68;;
62679;SDS011;68213;40.528;44.712;2023-09-08T00:40:17;10.07;;;7.18;;
62679;SDS011;68213;40.528;44.712;2023-09-08T00:41:18;7.85;;;6.70;;
62679;SDS011;68213;40.528;44.712;2023-09-08T00:42:19;10.90;;;6.60;;
62679;SDS011;68213;40.528;44.712;2023-09-08T00:43:20;11.05;;;6.80;;
62679;SDS011;68213;40.528;44.712;2023-09-08T00:45:23;9.45;;;6.25;;
62679;SDS011;68213;40.528;44.712;2023-09-08T00:46:31;17.17;;;7.15;;
62679;SDS011;68213;40.528;44.712;2023-09-08T00:47:32;10.45;;;6.78;;
62679;SDS011;68213;40.528;44.712;2023-09-08T00:48:33;10.45;;;7.15;;
62679;SDS011;68213;40.528;44.712;2023-09-08T00:49:35;12.02;;;6.80;;
62679;SDS011;68213;40.528;44.712;2023-09-08T00:50:36;12.50;;;6.55;;
62679;SDS011;68213;40.528;44.712;2023-09-08T00:51:37;9.15;;;6.72;;
62679;SDS011;68213;40.528;44.712;2023-09-08T00:52:38;10.35;;;5.80;;
62679;SDS011;68213;40.528;44.712;2023-09-08T00:53:38;15.27;;;6.65;;
62679;SDS011;68213;40.528;44.712;2023-09-08T00:54:39;12.63;;;6.97;;
62679;SDS011;68213;40.528;44.712;2023-09-08T00:55:41;8.98;;;6.18;;
62679;SDS011;68213;40.528;44.712;2023-09-08T00:56:42;9.80;;;6.88;;
62679;SDS011;68213;40.528;44.712;2023-09-08T00:57:42;11.18;;;6.53;;
62679;SDS011;68213;40.528;44.712;2023-09-08T00:58:43;11.45;;;6.07;;
62679;SDS011;68213;40.528;44.712;2023-09-08T00:59:44;14.93;;;6.85;;
62679;SDS011;68213;40.528;44.712;2023-09-08T01:00:44;12.45;;;6.30;;
62679;SDS011;68213;40.528;44.712;2023-09-08T01:01:45;10.43;;;5.90;;
62679;SDS011;68213;40.528;44.712;2023-09-08T01:02:46;9.48;;;6.47;;
62679;SDS011;68213;40.528;44.712;2023-09-08T01:03:46;13.20;;;6.25;;
62679;SDS011;68213;40.528;44.712;2023-09-08T01:04:47;10.52;;;5.85;;
62679;SDS011;68213;40.528;44.712;2023-09-08T01:05:48;13.77;;;6.10;;
62679;SDS011;68213;40.528;44.712;2023-09-08T01:06:49;9.95;;;6.43;;
62679;SDS011;68213;40.528;44.712;2023-09-08T01:07:50;13.38;;;7.00;;
62679;SDS011;68213;40.528;44.712;2023-09-08T01:08:53;14.32;;;6.88;;
62679;SDS011;68213;40.528;44.712;2023-09-08T01:09:55;12.60;;;6.70;;
62679;SDS011;68213;40.528;44.712;2023-09-08T01:10:56;10.88;;;6.70;;
62679;SDS011;68213;40.528;44.712;2023-09-08T01:11:57;9.38;;;6.45;;
62679;SDS011;68213;40.528;44.712;2023-09-08T01:13:02;6.95;;;5.80;;
62679;SDS011;68213;40.528;44.712;2023-09-08T01:14:03;8.93;;;5.78;;
62679;SDS011;68213;40.528;44.712;2023-09-08T01:15:04;9.02;;;6.28;;
62679;SDS011;68213;40.528;44.712;2023-09-08T01:16:06;11.13;;;6.65;;
62679;SDS011;68213;40.528;44.712;2023-09-08T01:17:06;12.57;;;6.70;;
62679;SDS011;68213;40.528;44.712;2023-09-08T01:18:07;10.40;;;6.60;;
62679;SDS011;68213;40.528;44.712;2023-09-08T01:19:10;8.05;;;6.25;;
62679;SDS011;68213;40.528;44.712;2023-09-08T01:20:23;11.38;;;6.18;;
62679;SDS011;68213;40.528;44.712;2023-09-08T01:23:56;10.75;;;6.70;;
62679;SDS011;68213;40.528;44.712;2023-09-08T01:25:06;8.55;;;6.00;;
62679;SDS011;68213;40.528;44.712;2023-09-08T01:26:16;8.82;;;6.50;;
62679;SDS011;68213;40.528;44.712;2023-09-08T01:27:18;11.07;;;6.80;;
62679;SDS011;68213;40.528;44.712;2023-09-08T01:28:21;11.35;;;6.30;;
62679;SDS011;68213;40.528;44.712;2023-09-08T01:29:23;10.20;;;6.60;;
62679;SDS011;68213;40.528;44.712;2023-09-08T01:30:28;10.95;;;6.47;;
62679;SDS011;68213;40.528;44.712;2023-09-08T01:31:32;11.63;;;6.28;;
62679;SDS011;68213;40.528;44.712;2023-09-08T01:32:33;11.48;;;6.75;;
62679;SDS011;68213;40.528;44.712;2023-09-08T01:33:34;13.30;;;7.20;;
62679;SDS011;68213;40.528;44.712;2023-09-08T01:34:36;9.05;;;6.50;;
62679;SDS011;68213;40.528;44.712;2023-09-08T01:35:41;9.35;;;6.82;;
62679;SDS011;68213;40.528;44.712;2023-09-08T01:36:42;10.95;;;6.72;;
62679;SDS011;68213;40.528;44.712;2023-09-08T01:37:46;9.23;;;6.47;;
62679;SDS011;68213;40.528;44.712;2023-09-08T01:38:48;12.38;;;6.07;;
62679;SDS011;68213;40.528;44.712;2023-09-08T01:39:49;12.52;;;6.47;;
62679;SDS011;68213;40.528;44.712;2023-09-08T01:40:49;13.27;;;6.18;;
62679;SDS011;68213;40.528;44.712;2023-09-08T01:41:50;9.25;;;6.47;;
62679;SDS011;68213;40.528;44.712;2023-09-08T01:42:51;12.35;;;6.78;;
62679;SDS011;68213;40.528;44.712;2023-09-08T01:43:52;8.10;;;6.63;;
62679;SDS011;68213;40.528;44.712;2023-09-08T01:44:52;10.38;;;6.97;;
62679;SDS011;68213;40.528;44.712;2023-09-08T01:45:54;12.20;;;6.53;;
62679;SDS011;68213;40.528;44.712;2023-09-08T01:46:55;11.48;;;6.35;;
62679;SDS011;68213;40.528;44.712;2023-09-08T01:47:58;9.68;;;6.15;;
62679;SDS011;68213;40.528;44.712;2023-09-08T01:48:59;9.15;;;6.15;;
62679;SDS011;68213;40.528;44.712;2023-09-08T01:50:00;12.57;;;7.03;;
62679;SDS011;68213;40.528;44.712;2023-09-08T01:51:01;9.85;;;6.45;;
62679;SDS011;68213;40.528;44.712;2023-09-08T01:52:02;12.48;;;6.60;;
62679;SDS011;68213;40.528;44.712;2023-09-08T01:53:03;9.25;;;6.65;;
62679;SDS011;68213;40.528;44.712;2023-09-08T01:54:03;12.02;;;6.88;;
62679;SDS011;68213;40.528;44.712;2023-09-08T01:55:04;10.63;;;6.53;;
62679;SDS011;68213;40.528;44.712;2023-09-08T01:56:07;11.30;;;6.30;;
62679;SDS011;68213;40.528;44.712;2023-09-08T01:57:08;10.93;;;6.18;;
62679;SDS011;68213;40.528;44.712;2023-09-08T01:58:09;9.93;;;6.38;;
62679;SDS011;68213;40.528;44.712;2023-09-08T01:59:09;9.05;;;6.07;;
62679;SDS011;68213;40.528;44.712;2023-09-08T02:00:10;9.60;;;5.90;;
62679;SDS011;68213;40.528;44.712;2023-09-08T02:01:11;8.02;;;5.43;;
62679;SDS011;68213;40.528;44.712;2023-09-08T02:02:12;8.05;;;5.57;;
62679;SDS011;68213;40.528;44.712;2023-09-08T02:03:13;12.00;;;6.07;;
62679;SDS011;68213;40.528;44.712;2023-09-08T02:04:13;11.20;;;6.13;;
62679;SDS011;68213;40.528;44.712;2023-09-08T02:05:14;10.27;;;6.20;;
62679;SDS011;68213;40.528;44.712;2023-09-08T02:06:15;9.75;;;5.95;;
62679;SDS011;68213;40.528;44.712;2023-09-08T02:07:16;9.55;;;5.90;;
62679;SDS011;68213;40.528;44.712;2023-09-08T02:08:17;9.23;;;5.68;;
62679;SDS011;68213;40.528;44.712;2023-09-08T02:09:17;9.38;;;6.60;;
62679;SDS011;68213;40.528;44.712;2023-09-08T02:10:18;9.10;;;6.10;;
62679;SDS011;68213;40.528;44.712;2023-09-08T02:11:19;11.20;;;5.88;;
62679;SDS011;68213;40.528;44.712;2023-09-08T02:12:20;10.02;;;5.70;;
62679;SDS011;68213;40.528;44.712;2023-09-08T02:13:21;8.23;;;5.57;;
62679;SDS011;68213;40.528;44.712;2023-09-08T02:14:23;8.00;;;5.60;;
62679;SDS011;68213;40.528;44.712;2023-09-08T02:15:25;9.38;;;5.95;;
62679;SDS011;68213;40.528;44.712;2023-09-08T02:16:26;14.65;;;5.53;;
62679;SDS011;68213;40.528;44.712;2023-09-08T02:17:26;7.28;;;5.40;;
62679;SDS011;68213;40.528;44.712;2023-09-08T02:18:28;7.85;;;5.53;;
62679;SDS011;68213;40.528;44.712;2023-09-08T02:19:28;8.30;;;5.50;;
62679;SDS011;68213;40.528;44.712;2023-09-08T02:20:29;11.50;;;5.47;;
62679;SDS011;68213;40.528;44.712;2023-09-08T02:21:30;9.50;;;5.50;;
62679;SDS011;68213;40.528;44.712;2023-09-08T02:22:30;7.65;;;5.38;;
62679;SDS011;68213;40.528;44.712;2023-09-08T02:23:31;6.20;;;5.50;;
62679;SDS011;68213;40.528;44.712;2023-09-08T02:24:32;10.05;;;5.25;;
62679;SDS011;68213;40.528;44.712;2023-09-08T02:25:33;9.05;;;5.65;;
62679;SDS011;68213;40.528;44.712;2023-09-08T02:26:33;6.50;;;5.35;;
62679;SDS011;68213;40.528;44.712;2023-09-08T02:27:34;8.27;;;5.60;;
62679;SDS011;68213;40.528;44.712;2023-09-08T02:28:34;8.52;;;5.07;;
62679;SDS011;68213;40.528;44.712;2023-09-08T02:29:35;7.35;;;4.90;;
62679;SDS011;68213;40.528;44.712;2023-09-08T02:30:36;9.40;;;5.20;;
62679;SDS011;68213;40.528;44.712;2023-09-08T02:31:37;9.38;;;5.40;;
62679;SDS011;68213;40.528;44.712;2023-09-08T02:32:37;7.63;;;5.32;;
62679;SDS011;68213;40.528;44.712;2023-09-08T02:33:38;9.55;;;5.40;;
62679;SDS011;68213;40.528;44.712;2023-09-08T02:34:39;9.88;;;4.88;;
62679;SDS011;68213;40.528;44.712;2023-09-08T02:35:41;11.32;;;5.20;;
62679;SDS011;68213;40.528;44.712;2023-09-08T02:36:42;11.55;;;5.22;;
62679;SDS011;68213;40.528;44.712;2023-09-08T02:37:42;9.73;;;4.82;;
62679;SDS011;68213;40.528;44.712;2023-09-08T02:38:43;10.90;;;5.03;;
62679;SDS011;68213;40.528;44.712;2023-09-08T02:39:44;7.82;;;4.72;;
62679;SDS011;68213;40.528;44.712;2023-09-08T02:40:45;7.07;;;4.97;;
62679;SDS011;68213;40.528;44.712;2023-09-08T02:41:45;10.75;;;5.07;;
62679;SDS011;68213;40.528;44.712;2023-09-08T02:42:46;10.25;;;5.10;;
62679;SDS011;68213;40.528;44.712;2023-09-08T02:43:47;7.25;;;4.82;;
62679;SDS011;68213;40.528;44.712;2023-09-08T02:44:48;8.32;;;4.88;;
62679;SDS011;68213;40.528;44.712;2023-09-08T02:45:49;14.23;;;5.13;;
62679;SDS011;68213;40.528;44.712;2023-09-08T02:46:50;7.80;;;4.68;;
62679;SDS011;68213;40.528;44.712;2023-09-08T02:47:50;7.18;;;4.70;;
62679;SDS011;68213;40.528;44.712;2023-09-08T02:48:55;6.35;;;4.65;;
62679;SDS011;68213;40.528;44.712;2023-09-08T02:49:57;9.32;;;5.13;;
62679;SDS011;68213;40.528;44.712;2023-09-08T02:50:58;8.77;;;5.40;;
62679;SDS011;68213;40.528;44.712;2023-09-08T02:51:58;10.05;;;5.05;;
62679;SDS011;68213;40.528;44.712;2023-09-08T02:52:59;9.93;;;5.15;;
62679;SDS011;68213;40.528;44.712;2023-09-08T02:54:00;7.03;;;4.80;;
62679;SDS011;68213;40.528;44.712;2023-09-08T02:55:00;7.22;;;5.38;;
62679;SDS011;68213;40.528;44.712;2023-09-08T02:56:02;6.75;;;5.22;;
62679;SDS011;68213;40.528;44.712;2023-09-08T02:57:08;8.75;;;4.88;;
62679;SDS011;68213;40.528;44.712;2023-09-08T02:58:08;10.95;;;4.95;;
62679;SDS011;68213;40.528;44.712;2023-09-08T02:59:09;9.38;;;5.15;;
62679;SDS011;68213;40.528;44.712;2023-09-08T03:00:12;7.57;;;5.25;;
62679;SDS011;68213;40.528;44.712;2023-09-08T03:01:14;8.90;;;4.93;;
62679;SDS011;68213;40.528;44.712;2023-09-08T03:02:15;11.10;;;5.20;;
62679;SDS011;68213;40.528;44.712;2023-09-08T03:03:16;11.18;;;4.82;;
62679;SDS011;68213;40.528;44.712;2023-09-08T03:04:17;7.53;;;5.00;;
62679;SDS011;68213;40.528;44.712;2023-09-08T03:05:17;8.48;;;5.15;;
62679;SDS011;68213;40.528;44.712;2023-09-08T03:06:18;9.85;;;5.00;;
62679;SDS011;68213;40.528;44.712;2023-09-08T03:07:20;8.35;;;4.60;;
62679;SDS011;68213;40.528;44.712;2023-09-08T03:08:22;7.30;;;4.40;;
62679;SDS011;68213;40.528;44.712;2023-09-08T03:09:23;6.88;;;4.53;;
62679;SDS011;68213;40.528;44.712;2023-09-08T03:10:24;10.05;;;4.75;;
62679;SDS011;68213;40.528;44.712;2023-09-08T03:11:24;6.60;;;4.75;;
62679;SDS011;68213;40.528;44.712;2023-09-08T03:12:25;9.15;;;5.20;;
62679;SDS011;68213;40.528;44.712;2023-09-08T03:13:25;8.15;;;4.63;;
62679;SDS011;68213;40.528;44.712;2023-09-08T03:14:26;12.02;;;5.25;;
62679;SDS011;68213;40.528;44.712;2023-09-08T03:15:27;7.07;;;4.65;;
62679;SDS011;68213;40.528;44.712;2023-09-08T03:16:28;8.10;;;5.13;;
62679;SDS011;68213;40.528;44.712;2023-09-08T03:17:30;5.32;;;4.38;;
62679;SDS011;68213;40.528;44.712;2023-09-08T03:18:31;8.70;;;4.88;;
62679;SDS011;68213;40.528;44.712;2023-09-08T03:19:36;7.18;;;4.78;;
62679;SDS011;68213;40.528;44.712;2023-09-08T03:20:37;8.82;;;5.68;;
62679;SDS011;68213;40.528;44.712;2023-09-08T03:21:37;11.02;;;5.18;;
62679;SDS011;68213;40.528;44.712;2023-09-08T03:22:38;10.30;;;5.15;;
62679;SDS011;68213;40.528;44.712;2023-09-08T03:23:40;9.73;;;4.93;;
62679;SDS011;68213;40.528;44.712;2023-09-08T03:24:41;6.50;;;5.10;;
62679;SDS011;68213;40.528;44.712;2023-09-08T03:25:42;7.55;;;4.90;;
62679;SDS011;68213;40.528;44.712;2023-09-08T03:26:43;9.57;;;5.20;;
62679;SDS011;68213;40.528;44.712;2023-09-08T03:27:44;7.35;;;5.00;;
62679;SDS011;68213;40.528;44.712;2023-09-08T03:28:44;9.13;;;5.15;;
62679;SDS011;68213;40.528;44.712;2023-09-08T03:29:45;7.72;;;4.88;;
62679;SDS011;68213;40.528;44.712;2023-09-08T03:30:46;7.47;;;4.80;;
62679;SDS011;68213;40.528;44.712;2023-09-08T03:31:46;8.10;;;5.47;;
62679;SDS011;68213;40.528;44.712;2023-09-08T03:32:47;8.25;;;5.35;;
62679;SDS011;68213;40.528;44.712;2023-09-08T03:33:48;6.90;;;5.22;;
62679;SDS011;68213;40.528;44.712;2023-09-08T03:34:48;7.15;;;5.28;;
62679;SDS011;68213;40.528;44.712;2023-09-08T03:35:50;7.55;;;5.03;;
62679;SDS011;68213;40.528;44.712;2023-09-08T03:36:51;8.63;;;5.50;;
62679;SDS011;68213;40.528;44.712;2023-09-08T03:37:54;6.90;;;4.85;;
62679;SDS011;68213;40.528;44.712;2023-09-08T03:38:54;8.48;;;5.30;;
62679;SDS011;68213;40.528;44.712;2023-09-08T03:40:00;10.45;;;6.00;;
62679;SDS011;68213;40.528;44.712;2023-09-08T03:41:01;7.20;;;5.10;;
62679;SDS011;68213;40.528;44.712;2023-09-08T03:42:02;8.15;;;5.57;;
62679;SDS011;68213;40.528;44.712;2023-09-08T03:43:03;7.00;;;5.07;;
62679;SDS011;68213;40.528;44.712;2023-09-08T03:44:04;8.05;;;5.38;;
62679;SDS011;68213;40.528;44.712;2023-09-08T03:45:05;6.40;;;5.00;;
62679;SDS011;68213;40.528;44.712;2023-09-08T03:46:06;8.35;;;5.78;;
62679;SDS011;68213;40.528;44.712;2023-09-08T03:47:08;7.43;;;5.57;;
62679;SDS011;68213;40.528;44.712;2023-09-08T03:48:09;10.10;;;5.45;;
62679;SDS011;68213;40.528;44.712;2023-09-08T03:49:10;8.27;;;5.15;;
62679;SDS011;68213;40.528;44.712;2023-09-08T03:50:10;6.75;;;5.45;;
62679;SDS011;68213;40.528;44.712;2023-09-08T03:51:11;8.55;;;5.65;;
62679;SDS011;68213;40.528;44.712;2023-09-08T03:52:11;6.72;;;5.55;;
62679;SDS011;68213;40.528;44.712;2023-09-08T03:53:12;9.15;;;5.50;;
62679;SDS011;68213;40.528;44.712;2023-09-08T03:54:13;8.23;;;5.93;;
62679;SDS011;68213;40.528;44.712;2023-09-08T03:55:16;8.77;;;5.72;;
62679;SDS011;68213;40.528;44.712;2023-09-08T03:56:17;8.13;;;5.68;;
62679;SDS011;68213;40.528;44.712;2023-09-08T03:57:17;9.73;;;5.72;;
62679;SDS011;68213;40.528;44.712;2023-09-08T03:58:18;9.73;;;5.80;;
62679;SDS011;68213;40.528;44.712;2023-09-08T03:59:19;9.65;;;5.30;;
62679;SDS011;68213;40.528;44.712;2023-09-08T04:00:19;10.50;;;5.78;;
62679;SDS011;68213;40.528;44.712;2023-09-08T04:01:22;7.43;;;5.35;;
62679;SDS011;68213;40.528;44.712;2023-09-08T04:02:22;9.98;;;5.50;;
62679;SDS011;68213;40.528;44.712;2023-09-08T04:03:23;9.27;;;5.63;;
62679;SDS011;68213;40.528;44.712;2023-09-08T04:04:24;11.40;;;5.95;;
62679;SDS011;68213;40.528;44.712;2023-09-08T04:05:24;11.63;;;5.68;;
62679;SDS011;68213;40.528;44.712;2023-09-08T04:06:25;8.15;;;5.20;;
62679;SDS011;68213;40.528;44.712;2023-09-08T04:07:27;8.32;;;5.53;;
62679;SDS011;68213;40.528;44.712;2023-09-08T04:08:27;11.52;;;6.15;;
62679;SDS011;68213;40.528;44.712;2023-09-08T04:09:28;10.45;;;5.90;;
62679;SDS011;68213;40.528;44.712;2023-09-08T04:10:29;11.18;;;5.45;;
62679;SDS011;68213;40.528;44.712;2023-09-08T04:11:29;7.53;;;5.38;;
62679;SDS011;68213;40.528;44.712;2023-09-08T04:12:30;9.60;;;5.70;;
62679;SDS011;68213;40.528;44.712;2023-09-08T04:13:31;9.95;;;5.72;;
62679;SDS011;68213;40.528;44.712;2023-09-08T04:14:31;8.68;;;5.05;;
62679;SDS011;68213;40.528;44.712;2023-09-08T04:15:34;13.90;;;5.95;;
62679;SDS011;68213;40.528;44.712;2023-09-08T04:16:34;11.77;;;6.15;;
62679;SDS011;68213;40.528;44.712;2023-09-08T04:17:35;9.13;;;5.72;;
62679;SDS011;68213;40.528;44.712;2023-09-08T04:18:36;12.32;;;5.75;;
62679;SDS011;68213;40.528;44.712;2023-09-08T04:19:37;7.20;;;5.20;;
62679;SDS011;68213;40.528;44.712;2023-09-08T04:20:38;8.05;;;5.60;;
62679;SDS011;68213;40.528;44.712;2023-09-08T04:21:40;8.55;;;5.35;;
62679;SDS011;68213;40.528;44.712;2023-09-08T04:22:43;11.13;;;5.65;;
62679;SDS011;68213;40.528;44.712;2023-09-08T04:23:45;6.95;;;5.25;;
62679;SDS011;68213;40.528;44.712;2023-09-08T04:24:46;12.73;;;5.85;;
62679;SDS011;68213;40.528;44.712;2023-09-08T04:25:47;7.55;;;5.53;;
62679;SDS011;68213;40.528;44.712;2023-09-08T04:26:48;10.15;;;5.35;;
62679;SDS011;68213;40.528;44.712;2023-09-08T04:27:48;6.55;;;5.50;;
62679;SDS011;68213;40.528;44.712;2023-09-08T04:28:49;6.75;;;5.43;;
62679;SDS011;68213;40.528;44.712;2023-09-08T04:29:50;9.98;;;5.88;;
62679;SDS011;68213;40.528;44.712;2023-09-08T04:30:50;7.20;;;5.53;;
62679;SDS011;68213;40.528;44.712;2023-09-08T04:31:51;10.50;;;6.18;;
62679;SDS011;68213;40.528;44.712;2023-09-08T04:32:52;8.55;;;5.53;;
62679;SDS011;68213;40.528;44.712;2023-09-08T04:33:53;14.77;;;5.97;;
62679;SDS011;68213;40.528;44.712;2023-09-08T04:34:54;10.40;;;6.43;;
62679;SDS011;68213;40.528;44.712;2023-09-08T04:35:55;11.80;;;8.13;;
62679;SDS011;68213;40.528;44.712;2023-09-08T04:36:55;9.35;;;5.05;;
62679;SDS011;68213;40.528;44.712;2023-09-08T04:37:56;7.40;;;5.10;;
62679;SDS011;68213;40.528;44.712;2023-09-08T04:38:57;12.35;;;5.45;;
62679;SDS011;68213;40.528;44.712;2023-09-08T04:39:57;9.05;;;5.47;;
62679;SDS011;68213;40.528;44.712;2023-09-08T04:40:58;11.48;;;5.60;;
62679;SDS011;68213;40.528;44.712;2023-09-08T04:41:58;8.63;;;5.05;;
62679;SDS011;68213;40.528;44.712;2023-09-08T04:42:59;10.23;;;5.40;;
62679;SDS011;68213;40.528;44.712;2023-09-08T04:44:00;9.05;;;5.10;;
62679;SDS011;68213;40.528;44.712;2023-09-08T04:45:01;9.15;;;5.15;;
62679;SDS011;68213;40.528;44.712;2023-09-08T04:46:03;7.07;;;4.85;;
62679;SDS011;68213;40.528;44.712;2023-09-08T04:47:04;9.75;;;5.43;;
62679;SDS011;68213;40.528;44.712;2023-09-08T04:48:05;8.45;;;5.00;;
62679;SDS011;68213;40.528;44.712;2023-09-08T04:49:05;7.90;;;5.40;;
62679;SDS011;68213;40.528;44.712;2023-09-08T04:50:06;11.27;;;5.47;;
62679;SDS011;68213;40.528;44.712;2023-09-08T04:51:07;9.57;;;5.50;;
62679;SDS011;68213;40.528;44.712;2023-09-08T04:52:08;9.35;;;5.78;;
62679;SDS011;68213;40.528;44.712;2023-09-08T04:53:10;7.57;;;5.28;;
62679;SDS011;68213;40.528;44.712;2023-09-08T04:54:11;6.43;;;4.72;;
62679;SDS011;68213;40.528;44.712;2023-09-08T04:55:12;8.70;;;5.35;;
62679;SDS011;68213;40.528;44.712;2023-09-08T04:56:13;10.82;;;5.60;;
62679;SDS011;68213;40.528;44.712;2023-09-08T04:57:14;9.05;;;5.10;;
62679;SDS011;68213;40.528;44.712;2023-09-08T04:58:14;10.07;;;5.28;;
62679;SDS011;68213;40.528;44.712;2023-09-08T04:59:15;9.60;;;5.82;;
62679;SDS011;68213;40.528;44.712;2023-09-08T05:00:16;10.32;;;5.18;;
62679;SDS011;68213;40.528;44.712;2023-09-08T05:01:17;11.90;;;5.90;;
62679;SDS011;68213;40.528;44.712;2023-09-08T05:02:17;8.38;;;5.53;;
62679;SDS011;68213;40.528;44.712;2023-09-08T05:03:18;8.00;;;5.65;;
62679;SDS011;68213;40.528;44.712;2023-09-08T05:04:19;9.93;;;5.65;;
62679;SDS011;68213;40.528;44.712;2023-09-08T05:05:20;11.32;;;5.88;;
62679;SDS011;68213;40.528;44.712;2023-09-08T05:06:20;8.57;;;5.38;;
62679;SDS011;68213;40.528;44.712;2023-09-08T05:07:21;12.45;;;5.20;;
62679;SDS011;68213;40.528;44.712;2023-09-08T05:08:22;10.05;;;5.85;;
62679;SDS011;68213;40.528;44.712;2023-09-08T05:09:22;9.93;;;5.88;;
62679;SDS011;68213;40.528;44.712;2023-09-08T05:10:23;9.27;;;5.70;;
62679;SDS011;68213;40.528;44.712;2023-09-08T05:11:24;13.55;;;5.30;;
62679;SDS011;68213;40.528;44.712;2023-09-08T05:12:26;12.52;;;5.68;;
62679;SDS011;68213;40.528;44.712;2023-09-08T05:13:26;11.68;;;6.25;;
62679;SDS011;68213;40.528;44.712;2023-09-08T05:14:28;13.57;;;6.13;;
62679;SDS011;68213;40.528;44.712;2023-09-08T05:15:29;7.40;;;5.20;;
62679;SDS011;68213;40.528;44.712;2023-09-08T05:16:31;11.27;;;5.45;;
62679;SDS011;68213;40.528;44.712;2023-09-08T05:17:45;10.05;;;5.60;;
62679;SDS011;68213;40.528;44.712;2023-09-08T05:18:48;13.07;;;6.15;;
62679;SDS011;68213;40.528;44.712;2023-09-08T05:19:49;8.50;;;5.18;;
62679;SDS011;68213;40.528;44.712;2023-09-08T05:20:50;8.35;;;5.53;;
62679;SDS011;68213;40.528;44.712;2023-09-08T05:21:51;14.13;;;6.18;;
62679;SDS011;68213;40.528;44.712;2023-09-08T05:22:52;15.35;;;6.10;;
62679;SDS011;68213;40.528;44.712;2023-09-08T05:23:52;11.30;;;5.88;;
62679;SDS011;68213;40.528;44.712;2023-09-08T05:24:53;13.18;;;6.18;;
62679;SDS011;68213;40.528;44.712;2023-09-08T05:25:54;16.25;;;6.47;;
62679;SDS011;68213;40.528;44.712;2023-09-08T05:26:55;11.25;;;5.60;;
62679;SDS011;68213;40.528;44.712;2023-09-08T05:27:56;11.90;;;5.63;;
62679;SDS011;68213;40.528;44.712;2023-09-08T05:28:57;9.13;;;5.22;;
62679;SDS011;68213;40.528;44.712;2023-09-08T05:29:57;10.50;;;6.00;;
62679;SDS011;68213;40.528;44.712;2023-09-08T05:30:59;13.52;;;5.53;;
62679;SDS011;68213;40.528;44.712;2023-09-08T05:31:59;13.75;;;5.75;;
62679;SDS011;68213;40.528;44.712;2023-09-08T05:33:00;12.43;;;5.40;;
62679;SDS011;68213;40.528;44.712;2023-09-08T05:34:00;12.73;;;5.93;;
62679;SDS011;68213;40.528;44.712;2023-09-08T05:35:01;11.73;;;5.85;;
62679;SDS011;68213;40.528;44.712;2023-09-08T05:36:04;10.95;;;5.35;;
62679;SDS011;68213;40.528;44.712;2023-09-08T05:37:07;18.73;;;5.95;;
62679;SDS011;68213;40.528;44.712;2023-09-08T05:38:08;10.25;;;6.25;;
62679;SDS011;68213;40.528;44.712;2023-09-08T05:39:09;11.52;;;5.40;;
62679;SDS011;68213;40.528;44.712;2023-09-08T05:40:10;9.57;;;5.60;;
62679;SDS011;68213;40.528;44.712;2023-09-08T05:41:13;11.07;;;5.38;;
62679;SDS011;68213;40.528;44.712;2023-09-08T05:42:14;12.10;;;5.57;;
62679;SDS011;68213;40.528;44.712;2023-09-08T05:43:14;8.20;;;5.20;;
62679;SDS011;68213;40.528;44.712;2023-09-08T05:44:15;9.95;;;5.70;;
62679;SDS011;68213;40.528;44.712;2023-09-08T05:45:15;13.00;;;5.85;;
62679;SDS011;68213;40.528;44.712;2023-09-08T05:46:16;11.77;;;5.70;;
62679;SDS011;68213;40.528;44.712;2023-09-08T05:47:18;9.15;;;6.03;;
62679;SDS011;68213;40.528;44.712;2023-09-08T05:48:18;11.98;;;6.00;;
62679;SDS011;68213;40.528;44.712;2023-09-08T05:49:19;11.43;;;6.40;;
62679;SDS011;68213;40.528;44.712;2023-09-08T05:50:20;15.48;;;6.10;;
62679;SDS011;68213;40.528;44.712;2023-09-08T05:51:21;10.43;;;6.00;;
62679;SDS011;68213;40.528;44.712;2023-09-08T05:52:23;12.60;;;6.15;;
62679;SDS011;68213;40.528;44.712;2023-09-08T05:53:26;12.35;;;6.13;;
62679;SDS011;68213;40.528;44.712;2023-09-08T05:54:27;11.57;;;6.40;;
62679;SDS011;68213;40.528;44.712;2023-09-08T05:55:29;11.90;;;5.65;;
62679;SDS011;68213;40.528;44.712;2023-09-08T05:56:30;12.27;;;6.40;;
62679;SDS011;68213;40.528;44.712;2023-09-08T05:57:32;8.25;;;5.90;;
62679;SDS011;68213;40.528;44.712;2023-09-08T05:58:34;11.43;;;5.72;;
62679;SDS011;68213;40.528;44.712;2023-09-08T05:59:35;16.58;;;7.03;;
62679;SDS011;68213;40.528;44.712;2023-09-08T06:00:36;10.88;;;5.65;;
62679;SDS011;68213;40.528;44.712;2023-09-08T06:01:37;13.07;;;5.70;;
62679;SDS011;68213;40.528;44.712;2023-09-08T06:02:37;10.88;;;5.78;;
62679;SDS011;68213;40.528;44.712;2023-09-08T06:03:38;10.27;;;6.28;;
62679;SDS011;68213;40.528;44.712;2023-09-08T06:04:41;12.40;;;5.72;;
62679;SDS011;68213;40.528;44.712;2023-09-08T06:05:42;14.85;;;5.95;;